sensor_id;sensor_type;location;lat;lon;timestamp;temperature;humidity
59146;DHT22;44928;53.074;6.646;2022-08-27T00:00:06;16.10;99.90
59146;DHT22;44928;53.074;6.646;2022-08-27T00:02:33;16.10;99.90
59146;DHT22;44928;53.074;6.646;2022-08-27T00:05:01;16.00;99.90
59146;DHT22;44928;53.074;6.646;2022-08-27T00:07:28;16.00;99.90
59146;DHT22;44928;53.074;6.646;2022-08-27T00:09:53;16.00;99.90
59146;DHT22;44928;53.074;6.646;2022-08-27T00:12:19;16.00;99.90
59146;DHT22;44928;53.074;6.646;2022-08-27T00:14:46;16.00;99.90
59146;DHT22;44928;53.074;6.646;2022-08-27T00:17:12;16.00;99.90
59146;DHT22;44928;53.074;6.646;2022-08-27T00:19:39;16.00;99.90
59146;DHT22;44928;53.074;6.646;2022-08-27T00:22:07;16.00;99.90
59146;DHT22;44928;53.074;6.646;2022-08-27T00:24:33;16.00;99.90
59146;DHT22;44928;53.074;6.646;2022-08-27T00:26:59;16.00;99.90
59146;DHT22;44928;53.074;6.646;2022-08-27T00:29:25;16.00;99.90
59146;DHT22;44928;53.074;6.646;2022-08-27T00:31:52;16.00;99.90
59146;DHT22;44928;53.074;6.646;2022-08-27T00:34:19;16.00;99.90
59146;DHT22;44928;53.074;6.646;2022-08-27T00:36:44;16.00;99.90
59146;DHT22;44928;53.074;6.646;2022-08-27T00:39:11;16.00;99.90
59146;DHT22;44928;53.074;6.646;2022-08-27T00:41:38;16.00;99.90
59146;DHT22;44928;53.074;6.646;2022-08-27T00:44:04;16.00;99.90
59146;DHT22;44928;53.074;6.646;2022-08-27T00:49:16;16.00;99.90
59146;DHT22;44928;53.074;6.646;2022-08-27T00:51:53;16.00;99.90
59146;DHT22;44928;53.074;6.646;2022-08-27T00:54:20;16.00;99.90
59146;DHT22;44928;53.074;6.646;2022-08-27T00:56:46;16.00;99.90
59146;DHT22;44928;53.074;6.646;2022-08-27T00:59:15;16.00;99.90
59146;DHT22;44928;53.074;6.646;2022-08-27T01:01:44;16.00;99.90
59146;DHT22;44928;53.074;6.646;2022-08-27T01:04:30;16.00;99.90
59146;DHT22;44928;53.074;6.646;2022-08-27T01:06:58;16.00;99.90
59146;DHT22;44928;53.074;6.646;2022-08-27T01:09:24;16.00;99.90
59146;DHT22;44928;53.074;6.646;2022-08-27T01:11:52;15.90;99.90
59146;DHT22;44928;53.074;6.646;2022-08-27T01:14:20;15.90;99.90
59146;DHT22;44928;53.074;6.646;2022-08-27T01:16:53;15.90;99.90
59146;DHT22;44928;53.074;6.646;2022-08-27T01:19:41;15.90;99.90
59146;DHT22;44928;53.074;6.646;2022-08-27T01:24:58;15.80;99.90
59146;DHT22;44928;53.074;6.646;2022-08-27T01:27:28;15.70;99.90
59146;DHT22;44928;53.074;6.646;2022-08-27T01:29:56;15.80;99.90
59146;DHT22;44928;53.074;6.646;2022-08-27T01:32:32;15.70;99.90
59146;DHT22;44928;53.074;6.646;2022-08-27T01:35:00;15.70;99.90
59146;DHT22;44928;53.074;6.646;2022-08-27T01:37:27;15.70;99.90
59146;DHT22;44928;53.074;6.646;2022-08-27T01:39:56;15.70;99.90
59146;DHT22;44928;53.074;6.646;2022-08-27T01:42:36;15.70;99.90
59146;DHT22;44928;53.074;6.646;2022-08-27T01:47:35;15.80;99.90
59146;DHT22;44928;53.074;6.646;2022-08-27T01:50:05;15.80;99.90
59146;DHT22;44928;53.074;6.646;2022-08-27T01:52:31;15.80;99.90
59146;DHT22;44928;53.074;6.646;2022-08-27T01:54:57;15.80;99.90
59146;DHT22;44928;53.074;6.646;2022-08-27T01:57:23;15.80;99.90
59146;DHT22;44928;53.074;6.646;2022-08-27T01:59:49;15.80;99.90
59146;DHT22;44928;53.074;6.646;2022-08-27T02:02:16;15.80;99.90
59146;DHT22;44928;53.074;6.646;2022-08-27T02:04:43;15.80;99.90
59146;DHT22;44928;53.074;6.646;2022-08-27T02:07:10;15.80;99.90
59146;DHT22;44928;53.074;6.646;2022-08-27T02:09:36;15.80;99.90
59146;DHT22;44928;53.074;6.646;2022-08-27T02:12:03;15.70;99.90
59146;DHT22;44928;53.074;6.646;2022-08-27T02:14:29;15.70;99.90
59146;DHT22;44928;53.074;6.646;2022-08-27T02:16:55;15.70;99.90
59146;DHT22;44928;53.074;6.646;2022-08-27T02:19:22;15.70;99.90
59146;DHT22;44928;53.074;6.646;2022-08-27T02:21:48;15.70;99.90
59146;DHT22;44928;53.074;6.646;2022-08-27T02:24:14;15.70;99.90
59146;DHT22;44928;53.074;6.646;2022-08-27T02:26:41;15.70;99.90
59146;DHT22;44928;53.074;6.646;2022-08-27T02:29:07;15.70;99.90
59146;DHT22;44928;53.074;6.646;2022-08-27T02:31:33;15.70;99.90
59146;DHT22;44928;53.074;6.646;2022-08-27T02:33:58;15.70;99.90
59146;DHT22;44928;53.074;6.646;2022-08-27T02:36:25;15.60;99.90
59146;DHT22;44928;53.074;6.646;2022-08-27T02:38:51;15.60;99.90
59146;DHT22;44928;53.074;6.646;2022-08-27T02:41:17;15.50;99.90
59146;DHT22;44928;53.074;6.646;2022-08-27T02:43:43;15.50;99.90
59146;DHT22;44928;53.074;6.646;2022-08-27T02:46:09;15.40;99.90
59146;DHT22;44928;53.074;6.646;2022-08-27T02:48:40;15.40;99.90
59146;DHT22;44928;53.074;6.646;2022-08-27T02:51:06;15.40;99.90
59146;DHT22;44928;53.074;6.646;2022-08-27T02:53:34;15.40;99.90
59146;DHT22;44928;53.074;6.646;2022-08-27T02:56:00;15.40;99.90
59146;DHT22;44928;53.074;6.646;2022-08-27T02:58:26;15.30;99.90
59146;DHT22;44928;53.074;6.646;2022-08-27T03:00:51;15.30;99.90
59146;DHT22;44928;53.074;6.646;2022-08-27T03:03:17;15.40;99.90
59146;DHT22;44928;53.074;6.646;2022-08-27T03:05:43;15.40;99.90
59146;DHT22;44928;53.074;6.646;2022-08-27T03:08:09;15.50;99.90
59146;DHT22;44928;53.074;6.646;2022-08-27T03:10:36;15.40;99.90
59146;DHT22;44928;53.074;6.646;2022-08-27T03:13:02;15.40;99.90
59146;DHT22;44928;53.074;6.646;2022-08-27T03:15:27;15.40;99.90
59146;DHT22;44928;53.074;6.646;2022-08-27T03:17:53;15.40;99.90
59146;DHT22;44928;53.074;6.646;2022-08-27T03:20:39;15.40;99.90
59146;DHT22;44928;53.074;6.646;2022-08-27T03:23:07;15.40;99.90
59146;DHT22;44928;53.074;6.646;2022-08-27T03:25:33;15.40;99.90
59146;DHT22;44928;53.074;6.646;2022-08-27T03:27:59;15.40;99.90
59146;DHT22;44928;53.074;6.646;2022-08-27T03:30:24;15.30;99.90
59146;DHT22;44928;53.074;6.646;2022-08-27T03:32:51;15.30;99.90
59146;DHT22;44928;53.074;6.646;2022-08-27T03:35:17;15.30;99.90
59146;DHT22;44928;53.074;6.646;2022-08-27T03:37:44;15.30;99.90
59146;DHT22;44928;53.074;6.646;2022-08-27T03:40:11;15.30;99.90
59146;DHT22;44928;53.074;6.646;2022-08-27T03:42:37;15.30;99.90
59146;DHT22;44928;53.074;6.646;2022-08-27T03:45:05;15.30;99.90
59146;DHT22;44928;53.074;6.646;2022-08-27T03:47:31;15.30;99.90
59146;DHT22;44928;53.074;6.646;2022-08-27T03:49:57;15.30;99.90
59146;DHT22;44928;53.074;6.646;2022-08-27T03:52:25;15.20;99.90
59146;DHT22;44928;53.074;6.646;2022-08-27T03:54:51;15.20;99.90
59146;DHT22;44928;53.074;6.646;2022-08-27T03:57:17;15.20;99.90
59146;DHT22;44928;53.074;6.646;2022-08-27T03:59:43;15.20;99.90
59146;DHT22;44928;53.074;6.646;2022-08-27T04:02:09;15.10;99.90
59146;DHT22;44928;53.074;6.646;2022-08-27T04:04:36;15.10;99.90
59146;DHT22;44928;53.074;6.646;2022-08-27T04:07:02;15.20;99.90
59146;DHT22;44928;53.074;6.646;2022-08-27T04:09:28;15.20;99.90
59146;DHT22;44928;53.074;6.646;2022-08-27T04:11:54;15.20;99.90
59146;DHT22;44928;53.074;6.646;2022-08-27T04:14:19;15.20;99.90
59146;DHT22;44928;53.074;6.646;2022-08-27T04:16:45;15.20;99.90
59146;DHT22;44928;53.074;6.646;2022-08-27T04:19:12;15.10;99.90
59146;DHT22;44928;53.074;6.646;2022-08-27T04:21:38;15.20;99.90
59146;DHT22;44928;53.074;6.646;2022-08-27T04:24:04;15.20;99.90
59146;DHT22;44928;53.074;6.646;2022-08-27T04:26:30;15.20;99.90
59146;DHT22;44928;53.074;6.646;2022-08-27T04:28:57;15.20;99.90
59146;DHT22;44928;53.074;6.646;2022-08-27T04:31:23;15.20;99.90
59146;DHT22;44928;53.074;6.646;2022-08-27T04:33:50;15.20;99.90
59146;DHT22;44928;53.074;6.646;2022-08-27T04:36:18;15.10;99.90
59146;DHT22;44928;53.074;6.646;2022-08-27T04:38:45;15.10;99.90
59146;DHT22;44928;53.074;6.646;2022-08-27T04:41:11;15.10;99.90
59146;DHT22;44928;53.074;6.646;2022-08-27T04:43:55;15.00;99.90
59146;DHT22;44928;53.074;6.646;2022-08-27T04:46:23;15.00;99.90
59146;DHT22;44928;53.074;6.646;2022-08-27T04:48:50;15.00;99.90
59146;DHT22;44928;53.074;6.646;2022-08-27T04:51:16;15.00;99.90
59146;DHT22;44928;53.074;6.646;2022-08-27T04:53:42;14.90;99.90
59146;DHT22;44928;53.074;6.646;2022-08-27T04:56:13;14.90;99.90
59146;DHT22;44928;53.074;6.646;2022-08-27T04:58:40;14.90;99.90
59146;DHT22;44928;53.074;6.646;2022-08-27T05:01:06;14.80;99.90
59146;DHT22;44928;53.074;6.646;2022-08-27T05:03:32;14.80;99.90
59146;DHT22;44928;53.074;6.646;2022-08-27T05:06:04;14.80;99.90
59146;DHT22;44928;53.074;6.646;2022-08-27T05:08:30;14.70;99.90
59146;DHT22;44928;53.074;6.646;2022-08-27T05:10:56;14.80;99.90
59146;DHT22;44928;53.074;6.646;2022-08-27T05:13:23;14.70;99.90
59146;DHT22;44928;53.074;6.646;2022-08-27T05:15:56;14.70;99.90
59146;DHT22;44928;53.074;6.646;2022-08-27T05:18:22;14.70;99.90
59146;DHT22;44928;53.074;6.646;2022-08-27T05:20:49;14.70;99.90
59146;DHT22;44928;53.074;6.646;2022-08-27T05:23:16;14.70;99.90
59146;DHT22;44928;53.074;6.646;2022-08-27T05:25:44;14.70;99.90
59146;DHT22;44928;53.074;6.646;2022-08-27T05:28:12;14.80;99.90
59146;DHT22;44928;53.074;6.646;2022-08-27T05:30:40;14.80;99.90
59146;DHT22;44928;53.074;6.646;2022-08-27T05:33:06;14.70;99.90
59146;DHT22;44928;53.074;6.646;2022-08-27T05:35:39;14.70;99.90
59146;DHT22;44928;53.074;6.646;2022-08-27T05:38:05;14.70;99.90
59146;DHT22;44928;53.074;6.646;2022-08-27T05:40:31;14.70;99.90
59146;DHT22;44928;53.074;6.646;2022-08-27T05:42:56;14.70;99.90
59146;DHT22;44928;53.074;6.646;2022-08-27T05:45:22;14.70;99.90
59146;DHT22;44928;53.074;6.646;2022-08-27T05:47:48;14.80;99.90
59146;DHT22;44928;53.074;6.646;2022-08-27T05:50:15;14.80;99.90
59146;DHT22;44928;53.074;6.646;2022-08-27T05:52:41;14.90;99.90
59146;DHT22;44928;53.074;6.646;2022-08-27T05:55:07;14.90;99.90
59146;DHT22;44928;53.074;6.646;2022-08-27T05:57:33;15.00;99.90
59146;DHT22;44928;53.074;6.646;2022-08-27T05:59:59;15.00;99.90
59146;DHT22;44928;53.074;6.646;2022-08-27T06:02:44;15.00;99.90
59146;DHT22;44928;53.074;6.646;2022-08-27T06:05:11;15.10;99.90
59146;DHT22;44928;53.074;6.646;2022-08-27T06:07:37;15.10;99.90
59146;DHT22;44928;53.074;6.646;2022-08-27T06:10:03;15.20;99.90
59146;DHT22;44928;53.074;6.646;2022-08-27T06:12:31;15.30;99.90
59146;DHT22;44928;53.074;6.646;2022-08-27T06:14:57;15.30;99.90
59146;DHT22;44928;53.074;6.646;2022-08-27T06:17:22;15.40;99.90
59146;DHT22;44928;53.074;6.646;2022-08-27T06:19:49;15.40;99.90
59146;DHT22;44928;53.074;6.646;2022-08-27T06:22:14;15.50;99.90
59146;DHT22;44928;53.074;6.646;2022-08-27T06:24:41;15.50;99.90
59146;DHT22;44928;53.074;6.646;2022-08-27T06:27:15;15.60;99.90
59146;DHT22;44928;53.074;6.646;2022-08-27T06:29:42;15.70;99.90
59146;DHT22;44928;53.074;6.646;2022-08-27T06:32:09;15.70;99.90
59146;DHT22;44928;53.074;6.646;2022-08-27T06:34:36;15.80;99.90
59146;DHT22;44928;53.074;6.646;2022-08-27T06:37:02;15.90;99.90
59146;DHT22;44928;53.074;6.646;2022-08-27T06:39:27;16.00;99.90
59146;DHT22;44928;53.074;6.646;2022-08-27T06:41:53;16.10;99.90
59146;DHT22;44928;53.074;6.646;2022-08-27T06:44:19;16.20;99.90
59146;DHT22;44928;53.074;6.646;2022-08-27T06:46:45;16.30;99.90
59146;DHT22;44928;53.074;6.646;2022-08-27T06:49:11;16.40;99.90
59146;DHT22;44928;53.074;6.646;2022-08-27T06:51:38;16.50;99.90
59146;DHT22;44928;53.074;6.646;2022-08-27T06:54:10;16.60;99.90
59146;DHT22;44928;53.074;6.646;2022-08-27T06:56:37;16.70;99.90
59146;DHT22;44928;53.074;6.646;2022-08-27T06:59:06;16.70;99.90
59146;DHT22;44928;53.074;6.646;2022-08-27T07:01:34;16.80;99.90
59146;DHT22;44928;53.074;6.646;2022-08-27T07:04:04;16.90;99.90
59146;DHT22;44928;53.074;6.646;2022-08-27T07:06:30;16.90;99.90
59146;DHT22;44928;53.074;6.646;2022-08-27T07:08:58;16.90;99.90
59146;DHT22;44928;53.074;6.646;2022-08-27T07:11:25;17.00;99.90
59146;DHT22;44928;53.074;6.646;2022-08-27T07:13:51;17.10;99.90
59146;DHT22;44928;53.074;6.646;2022-08-27T07:16:23;17.10;99.90
59146;DHT22;44928;53.074;6.646;2022-08-27T07:18:50;17.20;99.90
59146;DHT22;44928;53.074;6.646;2022-08-27T07:21:25;17.20;99.90
59146;DHT22;44928;53.074;6.646;2022-08-27T07:26:38;17.30;99.90
59146;DHT22;44928;53.074;6.646;2022-08-27T07:29:25;17.30;99.90
59146;DHT22;44928;53.074;6.646;2022-08-27T07:32:00;17.40;99.90
59146;DHT22;44928;53.074;6.646;2022-08-27T07:34:25;17.50;99.90
59146;DHT22;44928;53.074;6.646;2022-08-27T07:36:51;17.60;99.90
59146;DHT22;44928;53.074;6.646;2022-08-27T07:39:17;17.60;99.90
59146;DHT22;44928;53.074;6.646;2022-08-27T07:41:43;17.70;99.90
59146;DHT22;44928;53.074;6.646;2022-08-27T07:44:27;17.70;99.90
59146;DHT22;44928;53.074;6.646;2022-08-27T07:46:54;17.80;99.90
59146;DHT22;44928;53.074;6.646;2022-08-27T07:49:21;17.80;99.90
59146;DHT22;44928;53.074;6.646;2022-08-27T07:51:48;17.80;99.90
59146;DHT22;44928;53.074;6.646;2022-08-27T07:54:15;17.80;99.90
59146;DHT22;44928;53.074;6.646;2022-08-27T07:56:41;17.90;99.90
59146;DHT22;44928;53.074;6.646;2022-08-27T07:59:07;18.00;99.90
59146;DHT22;44928;53.074;6.646;2022-08-27T08:01:33;18.10;99.90
59146;DHT22;44928;53.074;6.646;2022-08-27T08:03:59;18.20;99.90
59146;DHT22;44928;53.074;6.646;2022-08-27T08:06:25;18.30;99.90
59146;DHT22;44928;53.074;6.646;2022-08-27T08:08:50;18.40;99.90
59146;DHT22;44928;53.074;6.646;2022-08-27T08:11:17;18.50;99.90
59146;DHT22;44928;53.074;6.646;2022-08-27T08:13:43;18.50;99.90
59146;DHT22;44928;53.074;6.646;2022-08-27T08:16:09;18.50;99.90
59146;DHT22;44928;53.074;6.646;2022-08-27T08:18:36;18.40;99.90
59146;DHT22;44928;53.074;6.646;2022-08-27T08:21:07;18.50;99.90
59146;DHT22;44928;53.074;6.646;2022-08-27T08:23:38;18.50;99.90
59146;DHT22;44928;53.074;6.646;2022-08-27T08:26:05;18.60;99.90
59146;DHT22;44928;53.074;6.646;2022-08-27T08:28:31;18.70;99.90
59146;DHT22;44928;53.074;6.646;2022-08-27T08:30:57;18.90;99.90
59146;DHT22;44928;53.074;6.646;2022-08-27T08:33:24;19.00;99.90
59146;DHT22;44928;53.074;6.646;2022-08-27T08:35:49;19.00;99.90
59146;DHT22;44928;53.074;6.646;2022-08-27T08:38:18;19.10;99.90
59146;DHT22;44928;53.074;6.646;2022-08-27T08:40:50;19.10;99.90
59146;DHT22;44928;53.074;6.646;2022-08-27T08:43:38;19.20;99.90
59146;DHT22;44928;53.074;6.646;2022-08-27T08:46:36;19.20;99.90
59146;DHT22;44928;53.074;6.646;2022-08-27T08:52:17;19.20;99.90
59146;DHT22;44928;53.074;6.646;2022-08-27T08:54:46;19.10;99.90
59146;DHT22;44928;53.074;6.646;2022-08-27T08:57:40;19.10;99.90
59146;DHT22;44928;53.074;6.646;2022-08-27T09:00:11;19.20;99.90
59146;DHT22;44928;53.074;6.646;2022-08-27T09:02:38;19.10;99.90
59146;DHT22;44928;53.074;6.646;2022-08-27T09:05:06;19.20;99.90
59146;DHT22;44928;53.074;6.646;2022-08-27T09:12:51;19.30;99.90
59146;DHT22;44928;53.074;6.646;2022-08-27T09:15:19;19.40;99.90
59146;DHT22;44928;53.074;6.646;2022-08-27T09:17:46;19.40;99.90
59146;DHT22;44928;53.074;6.646;2022-08-27T09:20:18;19.50;99.90
59146;DHT22;44928;53.074;6.646;2022-08-27T09:25:41;19.60;99.90
59146;DHT22;44928;53.074;6.646;2022-08-27T09:28:12;19.70;99.90
59146;DHT22;44928;53.074;6.646;2022-08-27T09:31:02;19.80;99.90
59146;DHT22;44928;53.074;6.646;2022-08-27T09:33:28;19.90;99.90
59146;DHT22;44928;53.074;6.646;2022-08-27T09:35:54;19.90;99.90
59146;DHT22;44928;53.074;6.646;2022-08-27T09:38:27;19.90;99.90
59146;DHT22;44928;53.074;6.646;2022-08-27T09:40:55;19.80;99.90
59146;DHT22;44928;53.074;6.646;2022-08-27T09:43:25;19.80;99.90
59146;DHT22;44928;53.074;6.646;2022-08-27T09:46:19;19.80;99.90
59146;DHT22;44928;53.074;6.646;2022-08-27T09:48:46;19.80;99.90
59146;DHT22;44928;53.074;6.646;2022-08-27T09:51:18;20.00;99.90
59146;DHT22;44928;53.074;6.646;2022-08-27T09:59:26;20.20;99.90
59146;DHT22;44928;53.074;6.646;2022-08-27T10:02:03;20.10;99.90
59146;DHT22;44928;53.074;6.646;2022-08-27T10:04:39;20.00;99.90
59146;DHT22;44928;53.074;6.646;2022-08-27T10:09:57;19.90;99.90
59146;DHT22;44928;53.074;6.646;2022-08-27T10:12:34;19.90;99.90
59146;DHT22;44928;53.074;6.646;2022-08-27T10:15:03;19.90;99.90
59146;DHT22;44928;53.074;6.646;2022-08-27T10:20:34;19.90;99.90
59146;DHT22;44928;53.074;6.646;2022-08-27T10:23:27;20.00;99.90
59146;DHT22;44928;53.074;6.646;2022-08-27T10:26:19;19.90;99.90
59146;DHT22;44928;53.074;6.646;2022-08-27T10:37:34;20.10;99.90
59146;DHT22;44928;53.074;6.646;2022-08-27T10:42:59;20.50;99.90
59146;DHT22;44928;53.074;6.646;2022-08-27T10:45:44;20.60;99.90
59146;DHT22;44928;53.074;6.646;2022-08-27T10:51:21;20.60;99.90
59146;DHT22;44928;53.074;6.646;2022-08-27T10:53:50;20.60;99.90
59146;DHT22;44928;53.074;6.646;2022-08-27T10:56:29;20.60;99.90
59146;DHT22;44928;53.074;6.646;2022-08-27T11:04:47;20.60;99.90
59146;DHT22;44928;53.074;6.646;2022-08-27T11:07:24;20.60;99.80
59146;DHT22;44928;53.074;6.646;2022-08-27T11:10:03;20.50;99.80
59146;DHT22;44928;53.074;6.646;2022-08-27T11:12:33;20.60;99.50
59146;DHT22;44928;53.074;6.646;2022-08-27T11:15:26;20.50;99.20
59146;DHT22;44928;53.074;6.646;2022-08-27T11:18:04;20.50;98.80
59146;DHT22;44928;53.074;6.646;2022-08-27T11:21:04;20.50;98.70
59146;DHT22;44928;53.074;6.646;2022-08-27T11:26:04;20.50;98.00
59146;DHT22;44928;53.074;6.646;2022-08-27T11:28:43;20.50;97.90
59146;DHT22;44928;53.074;6.646;2022-08-27T11:37:08;20.50;97.90
59146;DHT22;44928;53.074;6.646;2022-08-27T11:39:42;20.70;97.50
59146;DHT22;44928;53.074;6.646;2022-08-27T11:42:35;20.80;97.10
59146;DHT22;44928;53.074;6.646;2022-08-27T11:45:06;20.80;96.60
59146;DHT22;44928;53.074;6.646;2022-08-27T11:47:35;20.80;96.80
59146;DHT22;44928;53.074;6.646;2022-08-27T11:50:05;20.90;96.80
59146;DHT22;44928;53.074;6.646;2022-08-27T11:52:41;20.90;96.60
59146;DHT22;44928;53.074;6.646;2022-08-27T11:57:50;21.00;95.80
59146;DHT22;44928;53.074;6.646;2022-08-27T12:05:44;21.30;94.30
59146;DHT22;44928;53.074;6.646;2022-08-27T12:16:45;22.00;91.50
59146;DHT22;44928;53.074;6.646;2022-08-27T12:21:56;22.10;90.00
59146;DHT22;44928;53.074;6.646;2022-08-27T12:24:50;22.00;88.60
59146;DHT22;44928;53.074;6.646;2022-08-27T12:32:55;21.80;88.30
59146;DHT22;44928;53.074;6.646;2022-08-27T12:35:28;21.80;87.50
59146;DHT22;44928;53.074;6.646;2022-08-27T12:38:17;21.70;86.20
59146;DHT22;44928;53.074;6.646;2022-08-27T12:40:54;21.80;86.30
59146;DHT22;44928;53.074;6.646;2022-08-27T12:43:26;21.80;86.20
59146;DHT22;44928;53.074;6.646;2022-08-27T12:45:55;21.80;86.30
59146;DHT22;44928;53.074;6.646;2022-08-27T12:48:26;21.80;86.80
59146;DHT22;44928;53.074;6.646;2022-08-27T12:50:54;21.80;86.80
59146;DHT22;44928;53.074;6.646;2022-08-27T12:53:25;21.80;86.30
59146;DHT22;44928;53.074;6.646;2022-08-27T13:01:16;21.60;86.00
59146;DHT22;44928;53.074;6.646;2022-08-27T13:03:48;21.60;84.60
59146;DHT22;44928;53.074;6.646;2022-08-27T13:06:21;21.60;84.40
59146;DHT22;44928;53.074;6.646;2022-08-27T13:08:56;21.70;84.50
59146;DHT22;44928;53.074;6.646;2022-08-27T13:11:42;21.60;85.00
59146;DHT22;44928;53.074;6.646;2022-08-27T13:14:11;21.60;84.70
59146;DHT22;44928;53.074;6.646;2022-08-27T13:16:44;21.50;84.80
59146;DHT22;44928;53.074;6.646;2022-08-27T13:21:49;21.50;84.20
59146;DHT22;44928;53.074;6.646;2022-08-27T13:24:20;21.60;84.10
59146;DHT22;44928;53.074;6.646;2022-08-27T13:26:51;21.60;84.30
59146;DHT22;44928;53.074;6.646;2022-08-27T13:29:18;21.70;83.60
59146;DHT22;44928;53.074;6.646;2022-08-27T13:31:44;21.70;82.80
59146;DHT22;44928;53.074;6.646;2022-08-27T13:34:17;21.60;82.20
59146;DHT22;44928;53.074;6.646;2022-08-27T13:36:59;21.50;81.90
59146;DHT22;44928;53.074;6.646;2022-08-27T13:39:27;21.40;81.30
59146;DHT22;44928;53.074;6.646;2022-08-27T13:41:53;21.50;80.90
59146;DHT22;44928;53.074;6.646;2022-08-27T13:44:24;21.60;79.90
59146;DHT22;44928;53.074;6.646;2022-08-27T13:46:57;21.70;79.80
59146;DHT22;44928;53.074;6.646;2022-08-27T13:49:27;21.70;80.00
59146;DHT22;44928;53.074;6.646;2022-08-27T13:54:28;21.60;80.70
59146;DHT22;44928;53.074;6.646;2022-08-27T13:57:08;21.50;79.70
59146;DHT22;44928;53.074;6.646;2022-08-27T13:59:37;21.50;79.50
59146;DHT22;44928;53.074;6.646;2022-08-27T14:07:14;21.70;78.40
59146;DHT22;44928;53.074;6.646;2022-08-27T14:09:48;21.70;78.10
59146;DHT22;44928;53.074;6.646;2022-08-27T14:12:33;21.70;78.00
59146;DHT22;44928;53.074;6.646;2022-08-27T14:15:23;21.60;78.00
59146;DHT22;44928;53.074;6.646;2022-08-27T14:17:52;21.50;77.60
59146;DHT22;44928;53.074;6.646;2022-08-27T14:20:19;21.40;77.60
59146;DHT22;44928;53.074;6.646;2022-08-27T14:22:45;21.30;77.90
59146;DHT22;44928;53.074;6.646;2022-08-27T14:25:12;21.30;78.10
59146;DHT22;44928;53.074;6.646;2022-08-27T14:27:39;21.30;77.60
59146;DHT22;44928;53.074;6.646;2022-08-27T14:30:07;21.40;76.80
59146;DHT22;44928;53.074;6.646;2022-08-27T14:32:34;21.40;76.80
59146;DHT22;44928;53.074;6.646;2022-08-27T14:35:00;21.40;76.50
59146;DHT22;44928;53.074;6.646;2022-08-27T14:37:26;21.40;76.50
59146;DHT22;44928;53.074;6.646;2022-08-27T14:39:52;21.30;77.10
59146;DHT22;44928;53.074;6.646;2022-08-27T14:42:18;21.30;76.90
59146;DHT22;44928;53.074;6.646;2022-08-27T14:44:44;21.30;76.10
59146;DHT22;44928;53.074;6.646;2022-08-27T14:47:10;21.20;75.70
59146;DHT22;44928;53.074;6.646;2022-08-27T14:49:39;21.10;75.90
59146;DHT22;44928;53.074;6.646;2022-08-27T14:52:07;21.10;76.30
59146;DHT22;44928;53.074;6.646;2022-08-27T14:54:35;21.10;76.60
59146;DHT22;44928;53.074;6.646;2022-08-27T14:57:01;21.10;77.00
59146;DHT22;44928;53.074;6.646;2022-08-27T14:59:27;21.10;77.30
59146;DHT22;44928;53.074;6.646;2022-08-27T15:01:53;21.00;77.50
59146;DHT22;44928;53.074;6.646;2022-08-27T15:04:23;20.90;77.90
59146;DHT22;44928;53.074;6.646;2022-08-27T15:06:49;20.90;78.40
59146;DHT22;44928;53.074;6.646;2022-08-27T15:09:15;20.80;78.60
59146;DHT22;44928;53.074;6.646;2022-08-27T15:11:40;20.80;79.00
59146;DHT22;44928;53.074;6.646;2022-08-27T15:14:15;20.70;79.50
59146;DHT22;44928;53.074;6.646;2022-08-27T15:16:42;20.60;79.50
59146;DHT22;44928;53.074;6.646;2022-08-27T15:19:10;20.50;79.50
59146;DHT22;44928;53.074;6.646;2022-08-27T15:21:38;20.50;79.80
59146;DHT22;44928;53.074;6.646;2022-08-27T15:24:24;20.50;80.00
59146;DHT22;44928;53.074;6.646;2022-08-27T15:26:52;20.50;79.00
59146;DHT22;44928;53.074;6.646;2022-08-27T15:29:18;20.40;79.50
59146;DHT22;44928;53.074;6.646;2022-08-27T15:31:44;20.40;78.70
59146;DHT22;44928;53.074;6.646;2022-08-27T15:34:11;20.40;78.70
59146;DHT22;44928;53.074;6.646;2022-08-27T15:36:37;20.40;79.00
59146;DHT22;44928;53.074;6.646;2022-08-27T15:39:04;20.50;79.20
59146;DHT22;44928;53.074;6.646;2022-08-27T15:41:30;20.50;78.60
59146;DHT22;44928;53.074;6.646;2022-08-27T15:43:57;20.50;77.90
59146;DHT22;44928;53.074;6.646;2022-08-27T15:46:23;20.50;77.50
59146;DHT22;44928;53.074;6.646;2022-08-27T15:48:50;20.40;77.30
59146;DHT22;44928;53.074;6.646;2022-08-27T15:51:21;20.40;77.40
59146;DHT22;44928;53.074;6.646;2022-08-27T15:53:49;20.40;77.60
59146;DHT22;44928;53.074;6.646;2022-08-27T15:56:15;20.30;78.80
59146;DHT22;44928;53.074;6.646;2022-08-27T15:58:41;20.30;79.10
59146;DHT22;44928;53.074;6.646;2022-08-27T16:01:15;20.20;79.50
59146;DHT22;44928;53.074;6.646;2022-08-27T16:03:44;20.20;79.30
59146;DHT22;44928;53.074;6.646;2022-08-27T16:06:12;20.10;79.90
59146;DHT22;44928;53.074;6.646;2022-08-27T16:08:38;20.10;80.50
59146;DHT22;44928;53.074;6.646;2022-08-27T16:11:04;20.10;80.20
59146;DHT22;44928;53.074;6.646;2022-08-27T16:13:30;20.10;80.40
59146;DHT22;44928;53.074;6.646;2022-08-27T16:15:56;20.00;80.10
59146;DHT22;44928;53.074;6.646;2022-08-27T16:18:30;20.00;79.40
59146;DHT22;44928;53.074;6.646;2022-08-27T16:20:58;20.00;78.40
59146;DHT22;44928;53.074;6.646;2022-08-27T16:23:25;20.00;77.90
59146;DHT22;44928;53.074;6.646;2022-08-27T16:25:52;20.00;77.60
59146;DHT22;44928;53.074;6.646;2022-08-27T16:28:18;20.00;77.90
59146;DHT22;44928;53.074;6.646;2022-08-27T16:30:44;19.90;78.50
59146;DHT22;44928;53.074;6.646;2022-08-27T16:33:09;19.80;79.10
59146;DHT22;44928;53.074;6.646;2022-08-27T16:35:37;19.70;79.60
59146;DHT22;44928;53.074;6.646;2022-08-27T16:38:04;19.70;80.00
59146;DHT22;44928;53.074;6.646;2022-08-27T16:40:32;19.60;80.10
59146;DHT22;44928;53.074;6.646;2022-08-27T16:42:58;19.50;80.20
59146;DHT22;44928;53.074;6.646;2022-08-27T16:45:26;19.50;80.50
59146;DHT22;44928;53.074;6.646;2022-08-27T16:47:52;19.40;80.60
59146;DHT22;44928;53.074;6.646;2022-08-27T16:50:38;19.50;81.10
59146;DHT22;44928;53.074;6.646;2022-08-27T16:53:15;19.50;81.00
59146;DHT22;44928;53.074;6.646;2022-08-27T16:55:43;19.40;80.80
59146;DHT22;44928;53.074;6.646;2022-08-27T16:58:29;19.50;81.10
59146;DHT22;44928;53.074;6.646;2022-08-27T17:00:57;19.50;81.20
59146;DHT22;44928;53.074;6.646;2022-08-27T17:03:26;19.50;81.50
59146;DHT22;44928;53.074;6.646;2022-08-27T17:05:52;19.40;81.40
59146;DHT22;44928;53.074;6.646;2022-08-27T17:08:20;19.40;81.00
59146;DHT22;44928;53.074;6.646;2022-08-27T17:10:49;19.40;80.80
59146;DHT22;44928;53.074;6.646;2022-08-27T17:13:21;19.30;80.80
59146;DHT22;44928;53.074;6.646;2022-08-27T17:15:50;19.30;80.40
59146;DHT22;44928;53.074;6.646;2022-08-27T17:18:18;19.30;80.50
59146;DHT22;44928;53.074;6.646;2022-08-27T17:20:46;19.20;80.20
59146;DHT22;44928;53.074;6.646;2022-08-27T17:23:33;19.20;80.10
59146;DHT22;44928;53.074;6.646;2022-08-27T17:26:02;19.20;79.60